Haifa, Israel

08:11 AM IST on februarie 22, 2017 (GMT +0200)
Haifa | | Change Station

Elev 676 ft 32.81 °N, 34.99 °E | Updated 5 minutes ago

Clear
Cer senin
57.1 °F
Feels Like 57.1 °F
N
1.0
Vânt variabil Vânt from ESE
Gusts 4.0 mph

astăzi
High -- | Low -- °F
--% Chance of Precip.
Ieri
High -- | Low -- °F
Precip. -- inch
Presiunea 30.06 inch
Vizibilitatea -9999.0 mile
Nori
Punctul de rouă 44 °F
Umiditatea 62%
Precipitaţii 0.00 inch
Adâncimea zăpezii Not available.
6:15 AM 5:31 PM
Semilună în descreştere, 19% visible
METAR LLHA 220550Z 12004KT CAVOK 09/04 Q1018
Presiunea 30.06 inch
Vizibilitatea -9999.0 mile
Nori
Punctul de rouă 44 °F
Umiditatea 62%
Precipitaţii 0.00 inch
Adâncimea zăpezii Not available.
6:15 AM 5:31 PM
Semilună în descreştere, 19% visible
METAR LLHA 220550Z 12004KT CAVOK 09/04 Q1018

Get Your Daily Forecast Email!

Thanks for signing up!

Be on the lookout for a verification email in your inbox.

You'll start receiving the daily forecast at 8 AM.

×

10-Day Weather Forecast

No radar image for this location.
×

Almanac

Astronomie

Feb. 22, 2017 Răsărit Apus
Timpul Actual
Crepusculul Civil
Crepusculul nautic
Răsărit Astronomic
Luna
Durata zilei lumină
Lungimea zilei
Tomorrow will be .
, % of the Moon is Illuminated

Extremele de azi

Country Highs Country Lows

Community

WunderPhotos

Upload Photos

1,962,540 photos uploaded!

WunderBlog® & News

Nearby

Calitatea aerului

  Calitatea aerului Index de calitate a aerului Poluat
Not available.

Adâncimea zapezii

Station Depth Elevation

Earthquake Activity

Oraş Distance Mag. Time & Date
Minimum magnitude displayed is 2.5.

Coastal Water Temperatures

Locul Temperatura

Stations

Nearby Weather Stations

Locaţia staţiei Temp Vânt rece Punctul de rouă Umiditatea Vânt Precip. Elev Actualizare Type